Tropical Cyclones
[Index]
Main Index Home Page Stock Weather Photos Extreme Storms Discussion Storm News and Storm Chasing Reports Tropical Cyclones / Hurricanes / Typhoons Weather Data and Links Wild Fires / Bushfires Weather Observation Techniques Weather Picture Catalogue Tornado Pictures and Reports Stock Video Footage and DVDs for sale
Season 1978-1979 Tropical Cyclone 197903 Track Map
Season 1978-1979 Summaries: [BoM-AU] [JTWC-AU] [JTWC-SIO] [JTWC-SPAC] [JTWC-SH]
<<- Previous TC | JTWC 1978-1979 Season | Next TC ->>

click for intensity scale information  Lat/long Grid: Show Hide

 Date Labels: Show Hide

Joint Typhoon Warning Centre Cyclone Data

Name: 197903
Number: 991 / 7903

20 Dec 1978 00:00 UTC to 26 Dec 1978 00:00 UTC

    date/time    lat    long     hPa   cat  kts
1978-12-20 00    9.8    87.5                  30          
1978-12-20 06   10.0    88.0                  30          
1978-12-20 12   10.2    88.5                  35          
1978-12-20 18   10.4    89.0                  35          
1978-12-21 00   10.5    89.3            1     40          
1978-12-21 06   10.8    89.2            1     45          
1978-12-21 12   11.0    88.8            1     50          
1978-12-21 18   11.1    88.4            1     50          
1978-12-22 00   11.1    88.0            2     55          
1978-12-22 06   11.3    87.5            2     55          
1978-12-22 12   11.4    86.9            1     50          
1978-12-22 18   11.3    86.3            1     45          
1978-12-23 00   11.3    85.5            1     40          
1978-12-23 06   11.4    84.5            1     40          
1978-12-23 12   11.6    83.5                  35          
1978-12-23 18   11.8    82.7                  35          
1978-12-24 00   12.0    82.0                  30          
1978-12-24 06   12.1    81.1                  30          
1978-12-24 12   12.2    80.1                  30          
1978-12-24 18   12.3    79.6                  30          
1978-12-25 00   12.5    79.0                  30          
1978-12-25 06   12.7    77.6                  30          
1978-12-25 12   13.0    76.0                  30          
1978-12-25 18   13.2    74.3                  25          
1978-12-26 00   13.5    72.5                  25          
Winds are 1-min average.

Tropical cyclone tracks developed by Michael Bath using data from the Joint Typhoon Warning Centre Best Tracks and Google Maps.


[Australian Severe Weather index] [Copyright Notice] [Email Contacts] [Search This Site] [Privacy Policy]
Document: tropical_cyclone_197903.htm Updated: 18 September 2016